createdAt,value
2019-03-29T00:02:37.147Z,7.87
2019-03-29T00:05:41.909Z,6.83
2019-03-29T00:08:46.784Z,7.00
2019-03-29T00:14:55.936Z,6.87
2019-03-29T00:18:01.157Z,6.83
2019-03-29T00:21:06.779Z,6.10
2019-03-29T00:27:16.051Z,7.13
2019-03-29T00:30:21.975Z,6.20
2019-03-29T00:33:27.298Z,5.67
2019-03-29T00:36:32.822Z,5.97
2019-03-29T00:39:38.313Z,5.77
2019-03-29T00:42:43.144Z,6.33
2019-03-29T00:45:48.372Z,6.43
2019-03-29T00:48:53.956Z,6.13
2019-03-29T00:51:58.827Z,6.30
2019-03-29T00:55:03.888Z,5.10
2019-03-29T00:58:09.334Z,5.27
2019-03-29T01:01:15.361Z,5.23
2019-03-29T01:04:20.318Z,5.13
2019-03-29T01:07:25.285Z,4.87
2019-03-29T01:10:30.374Z,6.20
2019-03-29T01:13:36.270Z,5.57
2019-03-29T01:16:41.263Z,5.93
2019-03-29T01:19:46.126Z,5.90
2019-03-29T01:22:51.005Z,5.60
2019-03-29T01:25:56.382Z,5.10
2019-03-29T01:29:02.675Z,5.33
2019-03-29T01:32:07.493Z,5.37
2019-03-29T01:35:13.302Z,5.07
2019-03-29T01:38:22.321Z,5.13
2019-03-29T01:44:32.317Z,5.57
2019-03-29T01:47:37.072Z,4.93
2019-03-29T01:50:41.789Z,5.57
2019-03-29T01:53:47.236Z,5.73
2019-03-29T01:56:52.556Z,5.93
2019-03-29T01:59:59.727Z,5.00
2019-03-29T02:06:09.616Z,5.97
2019-03-29T02:09:14.494Z,5.37
2019-03-29T02:12:19.596Z,5.30
2019-03-29T02:15:24.902Z,4.93
2019-03-29T02:18:30.306Z,4.60
2019-03-29T02:21:35.837Z,5.83
2019-03-29T02:24:40.526Z,6.33
2019-03-29T02:27:45.602Z,6.00
2019-03-29T02:30:50.413Z,5.70
2019-03-29T02:33:55.284Z,5.87
2019-03-29T02:37:01.918Z,5.87
2019-03-29T02:40:08.042Z,5.00
2019-03-29T02:43:12.914Z,5.27
2019-03-29T02:46:17.887Z,4.83
2019-03-29T02:49:22.716Z,5.70
2019-03-29T02:52:27.612Z,6.30
2019-03-29T02:55:32.335Z,5.63
2019-03-29T02:58:37.258Z,5.50
2019-03-29T03:01:41.864Z,6.57
2019-03-29T03:04:46.688Z,5.90
2019-03-29T03:07:51.323Z,6.10
2019-03-29T03:10:56.268Z,6.27
2019-03-29T03:14:01.278Z,6.47
2019-03-29T03:17:05.930Z,6.27
2019-03-29T03:20:16.295Z,6.37
2019-03-29T03:23:21.377Z,6.60
2019-03-29T03:26:26.748Z,6.40
2019-03-29T03:32:35.880Z,5.97
2019-03-29T03:35:40.804Z,5.50
2019-03-29T03:38:45.573Z,5.37
2019-03-29T03:41:50.307Z,5.67
2019-03-29T03:44:55.408Z,5.90
2019-03-29T03:48:00.187Z,5.47
2019-03-29T03:51:05.417Z,5.13
2019-03-29T03:54:10.287Z,5.23
2019-03-29T03:57:15.092Z,5.93
2019-03-29T04:00:23.339Z,5.57
2019-03-29T04:03:28.341Z,5.47
2019-03-29T04:06:33.794Z,5.10
2019-03-29T04:09:49.522Z,5.60
2019-03-29T04:12:46.368Z,5.83
2019-03-29T04:15:51.287Z,5.50
2019-03-29T04:18:56.530Z,6.03
2019-03-29T04:22:01.972Z,6.47
2019-03-29T04:25:07.841Z,5.40
2019-03-29T04:28:13.650Z,5.60
2019-03-29T04:31:18.473Z,5.43
2019-03-29T04:34:23.298Z,5.77
2019-03-29T04:37:27.923Z,5.43
2019-03-29T04:40:32.765Z,6.37
2019-03-29T04:46:41.989Z,6.13
2019-03-29T04:49:47.279Z,5.90
2019-03-29T04:52:52.285Z,6.97
2019-03-29T04:55:57.101Z,6.47
2019-03-29T04:59:02.277Z,6.67
2019-03-29T05:02:07.220Z,7.07
2019-03-29T05:05:12.457Z,6.40
2019-03-29T05:08:17.307Z,6.53
2019-03-29T05:11:22.297Z,6.00
2019-03-29T05:14:27.279Z,6.73
2019-03-29T05:17:31.782Z,7.00
2019-03-29T05:20:36.584Z,6.60
2019-03-29T05:23:41.524Z,6.83
2019-03-29T05:26:46.344Z,5.90
2019-03-29T05:29:51.334Z,7.23
2019-03-29T05:32:56.308Z,7.23
2019-03-29T05:36:01.204Z,7.33
2019-03-29T05:39:08.144Z,7.40
2019-03-29T05:42:12.852Z,9.43
2019-03-29T05:45:17.939Z,9.10
2019-03-29T05:48:22.606Z,8.30
2019-03-29T05:51:27.492Z,9.50
2019-03-29T05:54:34.344Z,7.60
2019-03-29T05:57:39.284Z,9.47
2019-03-29T06:00:44.278Z,9.43
2019-03-29T06:03:48.943Z,8.97
2019-03-29T06:06:53.579Z,9.17
2019-03-29T06:09:58.384Z,8.93
2019-03-29T06:13:03.289Z,8.47
2019-03-29T06:16:08.072Z,8.77
2019-03-29T06:19:13.280Z,9.27
2019-03-29T06:22:18.284Z,8.47
2019-03-29T06:25:23.227Z,8.87
2019-03-29T06:28:29.991Z,8.80
2019-03-29T06:31:35.446Z,9.40
2019-03-29T06:34:40.722Z,9.57
2019-03-29T06:41:02.047Z,12.20
2019-03-29T06:43:56.297Z,13.03
2019-03-29T06:47:01.513Z,13.17
2019-03-29T06:50:10.511Z,11.27
2019-03-29T06:53:15.312Z,12.33
2019-03-29T06:56:20.407Z,12.27
2019-03-29T06:59:25.591Z,12.00
2019-03-29T07:02:30.533Z,11.13
2019-03-29T07:05:35.289Z,11.83
2019-03-29T07:08:40.368Z,10.93
2019-03-29T07:11:45.502Z,11.73
2019-03-29T07:14:50.283Z,10.93
2019-03-29T07:17:56.762Z,12.73
2019-03-29T07:21:02.235Z,11.70
2019-03-29T07:24:07.256Z,11.50
2019-03-29T07:27:12.115Z,11.17
2019-03-29T07:30:17.352Z,11.80
2019-03-29T07:33:22.354Z,10.87
2019-03-29T07:36:27.707Z,12.63
2019-03-29T07:42:37.268Z,10.73
2019-03-29T07:45:44.229Z,11.27
2019-03-29T07:48:49.430Z,11.60
2019-03-29T07:51:54.270Z,12.23
2019-03-29T07:54:59.243Z,11.87
2019-03-29T07:58:04.297Z,12.60
2019-03-29T08:01:09.753Z,11.00
2019-03-29T08:07:27.035Z,11.90
2019-03-29T08:10:30.253Z,11.67
2019-03-29T08:13:32.295Z,10.33
2019-03-29T08:16:37.702Z,11.00
2019-03-29T08:22:47.818Z,10.97
2019-03-29T08:25:54.973Z,9.33
2019-03-29T08:29:00.250Z,7.73
2019-03-29T08:32:05.388Z,8.67
2019-03-29T08:35:10.695Z,8.40
2019-03-29T08:41:20.995Z,9.33
2019-03-29T08:44:26.019Z,6.50
2019-03-29T08:47:31.357Z,7.87
2019-03-29T08:50:36.257Z,5.77
2019-03-29T08:53:41.029Z,5.63
2019-03-29T08:56:46.313Z,5.37
2019-03-29T08:59:52.335Z,6.10
2019-03-29T09:02:57.250Z,4.60
2019-03-29T09:06:02.326Z,5.10
2019-03-29T09:09:11.791Z,3.53
2019-03-29T09:12:15.337Z,3.27
2019-03-29T09:15:20.446Z,3.60
2019-03-29T09:18:26.129Z,4.53
2019-03-29T09:21:31.367Z,4.40
2019-03-29T09:24:36.146Z,4.40
2019-03-29T09:27:41.330Z,6.03
2019-03-29T09:30:46.415Z,4.40
2019-03-29T09:33:52.429Z,5.73
2019-03-29T09:36:59.926Z,4.87
2019-03-29T09:40:04.669Z,4.33
2019-03-29T09:43:10.317Z,5.10
2019-03-29T09:46:15.491Z,4.47
2019-03-29T09:49:21.352Z,4.20
2019-03-29T09:52:26.118Z,4.17
2019-03-29T09:55:31.387Z,3.60
2019-03-29T09:58:36.284Z,3.40
2019-03-29T10:01:41.124Z,3.43
2019-03-29T10:04:46.070Z,3.40
2019-03-29T10:07:51.728Z,3.23
2019-03-29T10:10:56.492Z,3.70
2019-03-29T10:14:01.479Z,3.53
2019-03-29T10:17:07.050Z,4.00
2019-03-29T10:20:12.419Z,3.90
2019-03-29T10:23:17.272Z,3.77
2019-03-29T10:26:22.365Z,3.80
2019-03-29T10:29:30.437Z,3.90
2019-03-29T10:32:35.286Z,3.80
2019-03-29T10:35:51.414Z,3.03
2019-03-29T10:38:47.337Z,3.13
2019-03-29T10:41:52.391Z,3.70
2019-03-29T10:44:57.611Z,3.93
2019-03-29T10:48:02.807Z,3.67
2019-03-29T10:51:08.489Z,3.70
2019-03-29T10:54:13.977Z,3.90
2019-03-29T10:57:19.373Z,3.90
2019-03-29T11:00:39.126Z,3.40
2019-03-29T11:03:44.598Z,3.47
2019-03-29T11:06:50.034Z,4.10
2019-03-29T11:09:54.801Z,4.13
2019-03-29T11:13:11.782Z,3.70
2019-03-29T11:16:06.988Z,4.00
2019-03-29T11:19:11.897Z,4.80
2019-03-29T11:22:17.251Z,5.30
2019-03-29T11:25:22.318Z,4.70
2019-03-29T11:28:27.318Z,4.30
2019-03-29T11:31:33.332Z,4.70
2019-03-29T11:34:38.794Z,5.07
2019-03-29T11:40:48.667Z,4.57
2019-03-29T11:43:56.515Z,5.23
2019-03-29T11:47:02.105Z,4.67
2019-03-29T11:50:08.308Z,5.23
2019-03-29T11:53:13.323Z,5.30
2019-03-29T11:56:18.295Z,5.00
2019-03-29T11:59:24.003Z,5.33
2019-03-29T12:02:31.539Z,4.50
2019-03-29T12:05:36.552Z,5.40
2019-03-29T12:08:43.304Z,5.20
2019-03-29T12:11:49.647Z,5.40
2019-03-29T12:14:54.324Z,5.00
2019-03-29T12:17:59.929Z,4.57
2019-03-29T12:21:04.905Z,5.20
2019-03-29T12:24:09.895Z,5.47
2019-03-29T12:27:15.345Z,5.60
2019-03-29T12:30:31.488Z,5.40
2019-03-29T12:33:28.317Z,5.60
2019-03-29T12:36:33.473Z,5.00
2019-03-29T12:39:38.760Z,5.10
2019-03-29T12:42:44.263Z,4.90
2019-03-29T12:45:50.561Z,5.13
2019-03-29T12:48:56.050Z,5.50
2019-03-29T12:52:01.746Z,5.17
2019-03-29T12:55:11.416Z,5.00
2019-03-29T12:58:16.337Z,5.63
2019-03-29T13:01:22.354Z,4.57
2019-03-29T13:04:27.621Z,5.33
2019-03-29T13:07:32.567Z,4.80
2019-03-29T13:10:37.294Z,5.23
2019-03-29T13:13:42.429Z,5.50
2019-03-29T13:16:47.454Z,4.77
2019-03-29T13:19:52.658Z,4.93
2019-03-29T13:26:02.338Z,4.47
2019-03-29T13:29:07.841Z,4.33
2019-03-29T13:32:13.695Z,4.73
2019-03-29T13:38:24.306Z,4.60
2019-03-29T13:41:31.632Z,4.93
2019-03-29T13:44:37.281Z,4.40
2019-03-29T13:47:42.772Z,4.77
2019-03-29T13:50:47.789Z,4.67
2019-03-29T13:53:52.935Z,4.93
2019-03-29T13:56:58.851Z,4.97
2019-03-29T14:00:06.103Z,4.90
2019-03-29T14:03:11.353Z,4.30
2019-03-29T14:06:17.012Z,5.00
2019-03-29T14:09:22.933Z,4.67
2019-03-29T14:12:28.639Z,5.20
2019-03-29T14:18:38.366Z,4.47
2019-03-29T14:21:44.303Z,4.47
2019-03-29T14:24:49.363Z,4.80
2019-03-29T14:27:54.505Z,4.60
2019-03-29T14:30:59.393Z,4.30
2019-03-29T14:34:05.329Z,4.63
2019-03-29T14:37:10.756Z,4.57
2019-03-29T14:40:16.535Z,4.70
2019-03-29T14:43:22.962Z,4.97
2019-03-29T14:46:30.103Z,5.03
2019-03-29T14:49:35.476Z,4.77
2019-03-29T14:52:40.534Z,4.23
2019-03-29T14:55:45.691Z,4.37
2019-03-29T15:02:02.475Z,4.83
2019-03-29T15:05:10.355Z,5.00
2019-03-29T15:08:19.599Z,4.80
2019-03-29T15:11:25.356Z,5.37
2019-03-29T15:14:34.370Z,5.47
2019-03-29T15:17:43.482Z,5.33
2019-03-29T15:20:53.823Z,4.93
2019-03-29T15:27:03.323Z,4.40
2019-03-29T15:30:10.438Z,5.20
2019-03-29T15:33:15.533Z,5.23
2019-03-29T15:36:24.712Z,4.50
2019-03-29T15:42:35.269Z,4.40
2019-03-29T15:45:44.728Z,4.30
2019-03-29T15:51:54.840Z,4.13
2019-03-29T15:55:02.492Z,4.73
2019-03-29T15:58:09.027Z,4.77
2019-03-29T16:01:14.432Z,5.57
2019-03-29T16:04:23.167Z,4.37
2019-03-29T16:07:33.546Z,3.97
2019-03-29T16:10:40.955Z,4.47
2019-03-29T16:13:44.852Z,4.93
2019-03-29T16:16:49.747Z,4.93
2019-03-29T16:19:56.585Z,4.10
2019-03-29T16:23:03.282Z,4.40
2019-03-29T16:26:08.603Z,4.60
2019-03-29T16:29:14.227Z,4.23
2019-03-29T16:32:19.432Z,4.13
2019-03-29T16:35:25.564Z,3.47
2019-03-29T16:38:30.316Z,3.33
2019-03-29T16:41:35.775Z,4.07
2019-03-29T16:44:41.571Z,3.20
2019-03-29T16:47:46.508Z,4.10
2019-03-29T16:50:51.829Z,6.20
2019-03-29T16:53:58.751Z,6.37
2019-03-29T17:00:14.507Z,9.97
2019-03-29T17:03:20.084Z,6.00
2019-03-29T17:06:25.264Z,5.33
2019-03-29T17:09:30.348Z,5.33
2019-03-29T17:12:35.546Z,4.90
2019-03-29T17:15:40.693Z,3.70
2019-03-29T17:21:51.278Z,4.00
2019-03-29T17:24:57.478Z,3.50
2019-03-29T17:28:02.523Z,3.83
2019-03-29T17:31:09.954Z,3.60
2019-03-29T17:34:15.510Z,4.00
2019-03-29T17:37:23.376Z,4.60
2019-03-29T17:40:28.668Z,4.47
2019-03-29T17:43:33.715Z,4.27
2019-03-29T17:49:43.760Z,3.60
2019-03-29T17:52:48.685Z,3.90
2019-03-29T17:58:58.278Z,4.43
2019-03-29T18:02:09.150Z,6.03
2019-03-29T18:05:10.309Z,12.73
2019-03-29T18:08:15.318Z,11.60
2019-03-29T18:11:20.983Z,8.37
2019-03-29T18:14:28.378Z,16.10
2019-03-29T18:17:34.692Z,15.20
2019-03-29T18:23:44.364Z,21.10
2019-03-29T18:26:49.278Z,19.33
2019-03-29T18:29:54.309Z,23.07
2019-03-29T18:32:59.342Z,25.03
2019-03-29T18:36:06.788Z,20.50
2019-03-29T18:39:11.954Z,17.20
2019-03-29T18:42:19.402Z,14.47
2019-03-29T18:45:24.304Z,9.57
2019-03-29T18:48:29.416Z,8.63
2019-03-29T18:51:35.945Z,8.23
2019-03-29T18:54:40.909Z,8.63
2019-03-29T18:57:46.045Z,8.27
2019-03-29T19:00:52.046Z,7.30
2019-03-29T19:03:57.550Z,14.27
2019-03-29T19:07:02.656Z,12.77
2019-03-29T19:10:08.943Z,13.63
2019-03-29T19:13:17.272Z,11.70
2019-03-29T19:16:22.566Z,11.30
2019-03-29T19:19:29.423Z,13.07
2019-03-29T19:22:34.867Z,13.03
2019-03-29T19:25:41.360Z,10.33
2019-03-29T19:28:48.615Z,9.70
2019-03-29T19:31:56.231Z,9.33
2019-03-29T19:35:01.714Z,10.47
2019-03-29T19:41:11.418Z,16.93
2019-03-29T19:44:17.323Z,28.20
2019-03-29T19:47:25.367Z,17.70
2019-03-29T19:50:30.296Z,12.57
2019-03-29T19:53:36.441Z,11.40
2019-03-29T19:56:43.755Z,8.60
2019-03-29T20:02:54.300Z,9.33
2019-03-29T20:06:03.545Z,8.47
2019-03-29T20:09:10.560Z,8.00
2019-03-29T20:12:16.379Z,7.47
2019-03-29T20:15:21.448Z,7.17
2019-03-29T20:18:28.067Z,6.43
2019-03-29T20:21:38.952Z,7.73
2019-03-29T20:24:45.697Z,6.77
2019-03-29T20:27:50.866Z,6.70
2019-03-29T20:30:56.307Z,7.10
2019-03-29T20:34:01.719Z,6.93
2019-03-29T20:40:13.367Z,6.43
2019-03-29T20:43:18.503Z,7.23
2019-03-29T20:46:23.615Z,6.73
2019-03-29T20:49:28.763Z,6.70
2019-03-29T20:52:35.204Z,7.20
2019-03-29T20:55:40.067Z,7.53
2019-03-29T20:58:45.255Z,6.83
2019-03-29T21:01:52.737Z,6.07
2019-03-29T21:04:56.806Z,6.40
2019-03-29T21:08:01.611Z,6.67
2019-03-29T21:11:06.421Z,6.70
2019-03-29T21:14:11.924Z,7.30
2019-03-29T21:17:18.815Z,7.67
2019-03-29T21:20:24.693Z,16.80
2019-03-29T21:23:29.600Z,17.43
2019-03-29T21:26:36.989Z,14.43
2019-03-29T21:29:44.043Z,14.63
2019-03-29T21:32:49.343Z,10.97
2019-03-29T21:35:54.273Z,14.70
2019-03-29T21:38:59.486Z,20.80
2019-03-29T21:42:06.531Z,25.60
2019-03-29T21:45:11.509Z,25.80
2019-03-29T21:48:28.646Z,25.15
2019-03-29T21:51:26.370Z,20.30
2019-03-29T21:54:31.468Z,19.37
2019-03-29T21:57:36.670Z,19.27
2019-03-29T22:00:41.654Z,9.93
2019-03-29T22:03:46.546Z,9.63
2019-03-29T22:06:51.763Z,9.27
2019-03-29T22:09:58.076Z,8.50
2019-03-29T22:13:07.348Z,9.20
2019-03-29T22:16:14.434Z,8.53
2019-03-29T22:19:24.298Z,6.63
2019-03-29T22:22:30.369Z,6.37
2019-03-29T22:25:35.712Z,5.27
2019-03-29T22:31:45.939Z,5.23
2019-03-29T22:34:51.282Z,5.70
2019-03-29T22:37:56.591Z,5.87
2019-03-29T22:41:03.443Z,5.23
2019-03-29T22:44:09.338Z,4.80
2019-03-29T22:47:14.284Z,5.33
2019-03-29T22:50:19.657Z,8.10
2019-03-29T22:53:24.963Z,5.90
2019-03-29T22:56:29.644Z,5.70
2019-03-29T22:59:35.335Z,10.83
2019-03-29T23:02:40.692Z,16.90
2019-03-29T23:08:50.329Z,14.87
2019-03-29T23:11:55.548Z,14.07
2019-03-29T23:15:00.603Z,14.57
2019-03-29T23:18:05.814Z,8.57
2019-03-29T23:21:11.415Z,13.83
2019-03-29T23:24:17.240Z,8.33
2019-03-29T23:27:22.870Z,9.10
2019-03-29T23:30:27.644Z,8.47
2019-03-29T23:33:32.938Z,5.00
2019-03-29T23:36:38.753Z,4.90
2019-03-29T23:42:47.919Z,5.07
2019-03-29T23:45:53.328Z,5.20
2019-03-29T23:48:58.612Z,5.30
2019-03-29T23:52:03.710Z,5.30
2019-03-29T23:55:08.859Z,5.00
2019-03-29T23:58:13.698Z,4.67
